Historique des mesures à Cassis (13260), France
Quotidien Résumé Janvier 5, 2017 Unités:  US    Métrique   Métrique/US
« Précédent (Jour)
Suivant (Jour) »
Quotidien Hebdomadaire Mensuel Annuel Période au choix
  Maximum: Minimum: Moyenne:
Température: 32 °F 40.8 °F 43 °F
Point de rosée: 32 °F 24.3 °F 27.9 °F
Humidité: Humidity % 45 % 52 %
Vitesse du vent: WindSpeedKMH mph 5.0 mph 18.9 mph
Rafales: WindSpeedGustKMH mph - -
Vent:- - South
Pression: 0 in 29.8 in -
Précipitations: 0 in    
Historical Graphs
 
 
Mesures pour : Janvier 5, 2017
Heure Temperature Point de rosée Pression Vent Vitesse du vent Rafales Humidité Pluie (par heure) Conditions
32 °F 32 °F 0 in Calm     Humidity % 0 in SoftwareType W/m2
00:12 43.7 °F 30.4 °F 29.8 in NW 39.9 mph 39.9 mph 59 % 0 in open2300-1.11 W/m2
01:10 44.4 °F 30.6 °F 29.8 in North 32.0 mph 32.0 mph 58 % 0 in open2300-1.11 W/m2
02:11 43.9 °F 31.3 °F 29.8 in North 25.3 mph 37.8 mph 61 % 0 in open2300-1.11 W/m2
03:10 42.8 °F 30.9 °F 29.9 in NW 31.7 mph 32.8 mph 63 % 0 in open2300-1.11 W/m2
04:11 42.6 °F 30 °F 29.9 in NNW 38.1 mph 38.1 mph 61 % 0 in open2300-1.11 W/m2
05:10 42.1 °F 30 °F 29.9 in NW 22.7 mph 64.4 mph 62 % 0 in open2300-1.11 W/m2
06:11 41.9 °F 29.5 °F 29.9 in North 24.5 mph 39.6 mph 61 % 0 in open2300-1.11 W/m2
07:10 41.4 °F 28.6 °F 29.9 in NNW 18.3 mph 49.2 mph 60 % 0 in open2300-1.11 W/m2
08:11 40.8 °F 28 °F 29.9 in North 20.9 mph 21.9 mph 60 % 0 in open2300-1.11 W/m2
09:10 40.8 °F 28.4 °F 29.9 in North 32.8 mph 32.8 mph 61 % 0 in open2300-1.11 W/m2
10:11 42.3 °F 27.7 °F 30 in NNW 25.9 mph 30.2 mph 56 % 0 in open2300-1.11 W/m2
11:10 44.2 °F 28 °F 30 in North 15.1 mph 33.8 mph 53 % 0 in open2300-1.11 W/m2
12:11 46 °F 28.4 °F 30 in NNW 11.9 mph 25.6 mph 50 % 0 in open2300-1.11 W/m2
13:10 46.6 °F 28.9 °F 29.9 in NNE 20.9 mph 20.9 mph 50 % 0 in open2300-1.11 W/m2
14:11 46.9 °F 27.7 °F 29.9 in WNW 18.7 mph 41.0 mph 47 % 0 in open2300-1.11 W/m2
15:10 46.6 °F 26.8 °F 29.9 in WNW 18.0 mph 34.9 mph 46 % 0 in open2300-1.11 W/m2
16:11 46 °F 25.7 °F 30 in NNE 6.4 mph 35.2 mph 45 % 0 in open2300-1.11 W/m2
17:10 45 °F 25.3 °F 30 in NW 7.2 mph 21.9 mph 46 % 0 in open2300-1.11 W/m2
18:11 43.5 °F 25.2 °F 30 in NW 15.8 mph 31.7 mph 48 % 0 in open2300-1.11 W/m2
19:10 43 °F 25.2 °F 30 in West 14.8 mph 23.3 mph 49 % 0 in open2300-1.11 W/m2
20:11 42.4 °F 25.2 °F 30 in NNE 12.6 mph 23.0 mph 50 % 0 in open2300-1.11 W/m2
21:10 41.9 °F 24.6 °F 30.1 in West 5.5 mph 16.6 mph 50 % 0 in open2300-1.11 W/m2
22:11 41.5 °F 24.3 °F 30.1 in WNW 8.2 mph 18.3 mph 50 % 0 in open2300-1.11 W/m2
23:10 41.2 °F 24.3 °F 30.1 in North 5.0 mph 17.7 mph 51 % 0 in open2300-1.11 W/m2
Observations météo à CASSIS
WU-History script by Weather Underground - 1 mb